Time;durP1;ratioP1;P1;durP2;ratioP2;P2;SDS_P1;SDS_P2;PMS_P1;PMS_P2;Temp;Humidity;BMP_temperature;BMP_pressure;BME280_temperature;BME280_humidity;BME280_pressure;Samples;Min_cycle;Max_cycle;Signal;HPM_P1;HPM_P2
2022/11/03 00:01:05;;;;;;;11.82;5.72;;;16.40;99.90;;;;;;4590103;19;20505;-32
2022/11/03 00:02:38;;;;;;;13.25;7.25;;;16.30;99.90;;;;;;4588944;19;20018;-35
2022/11/03 00:04:11;;;;;;;13.02;6.50;;;16.40;99.90;;;;;;4589997;19;20017;-33
2022/11/03 00:07:36;;;;;;;11.48;6.05;;;16.40;99.90;;;;;;4589718;19;20038;-33
2022/11/03 00:09:10;;;;;;;10.65;6.03;;;16.40;99.90;;;;;;4590098;19;20479;-33
2022/11/03 00:10:42;;;;;;;14.75;7.53;;;16.40;99.90;;;;;;4588938;19;20070;-34
2022/11/03 00:12:15;;;;;;;10.65;6.53;;;16.30;99.90;;;;;;4589648;19;20487;-32
2022/11/03 00:13:46;;;;;;;16.45;6.15;;;16.40;99.90;;;;;;4590630;19;20027;-34
2022/11/03 00:15:18;;;;;;;10.10;5.03;;;16.40;99.90;;;;;;4590012;19;20056;-34
2022/11/03 00:16:51;;;;;;;9.65;4.85;;;16.30;99.90;;;;;;4590006;19;20011;-32
2022/11/03 00:18:22;;;;;;;9.07;5.10;;;16.40;99.90;;;;;;4590139;19;20519;-33
2022/11/03 00:19:53;;;;;;;8.80;5.15;;;16.30;99.90;;;;;;4590480;19;20003;-33
2022/11/03 00:21:26;;;;;;;7.57;5.28;;;16.30;99.90;;;;;;4589735;19;20476;-33
2022/11/03 00:22:57;;;;;;;8.75;5.55;;;16.40;99.90;;;;;;4588775;19;20426;-35
2022/11/03 00:24:28;;;;;;;12.43;6.18;;;16.30;99.90;;;;;;4588960;19;20032;-33
2022/11/03 00:26:10;;;;;;;14.68;7.63;;;16.30;99.90;;;;;;4589888;19;20005;-34
2022/11/03 00:27:41;;;;;;;;;;;16.40;99.90;;;;;;4588726;19;20023;-34
2022/11/03 00:29:12;;;;;;;16.23;9.70;;;16.30;99.90;;;;;;4589149;19;19939;-33
2022/11/03 00:30:45;;;;;;;16.63;8.90;;;16.30;99.90;;;;;;4588214;19;20057;-34
2022/11/03 00:32:17;;;;;;;15.75;8.65;;;16.30;99.90;;;;;;4589109;19;20010;-33
2022/11/03 00:33:50;;;;;;;14.13;7.82;;;16.30;99.90;;;;;;4588929;19;20053;-34
2022/11/03 00:35:22;;;;;;;12.15;6.45;;;16.30;99.90;;;;;;4589967;19;20018;-33
2022/11/03 00:36:53;;;;;;;10.77;5.65;;;16.30;99.90;;;;;;4590461;19;20003;-34
2022/11/03 00:38:27;;;;;;;9.48;5.45;;;16.30;99.90;;;;;;4589913;19;20002;-33
2022/11/03 00:40:00;;;;;;;10.25;5.65;;;16.30;99.90;;;;;;4588225;19;20032;-33
2022/11/03 00:41:31;;;;;;;13.73;5.63;;;16.30;99.90;;;;;;4589111;19;20006;-34
2022/11/03 00:43:04;;;;;;;8.70;4.57;;;16.30;99.90;;;;;;4589104;19;20476;-32
2022/11/03 00:44:35;;;;;;;9.18;5.18;;;16.30;99.90;;;;;;4588844;19;20011;-33
2022/11/03 00:46:07;;;;;;;9.15;4.40;;;16.30;99.90;;;;;;4589654;19;20015;-34
2022/11/03 00:48:28;;;;;;;7.50;4.93;;;16.30;99.90;;;;;;4589394;19;20007;-34
2022/11/03 00:49:31;;;;;;;7.10;4.28;;;16.30;99.90;;;;;;4589833;19;20011;-32
2022/11/03 00:51:14;;;;;;;9.15;4.85;;;16.30;99.90;;;;;;4590269;19;20007;-32
2022/11/03 00:52:46;;;;;;;9.35;5.57;;;16.30;99.90;;;;;;4589847;19;20018;-33
2022/11/03 00:54:19;;;;;;;8.98;4.78;;;16.30;99.90;;;;;;4589227;19;20468;-32
2022/11/03 00:55:51;;;;;;;8.00;5.47;;;16.30;99.90;;;;;;4589803;19;20017;-32
2022/11/03 00:57:23;;;;;;;7.53;4.50;;;16.30;99.90;;;;;;4589429;19;20014;-32
2022/11/03 00:58:57;;;;;;;8.05;4.28;;;16.30;99.90;;;;;;4588930;19;20006;-34
2022/11/03 01:00:29;;;;;;;9.40;5.43;;;16.30;99.90;;;;;;4588287;19;20018;-32
2022/11/03 01:02:01;;;;;;;18.30;8.88;;;16.30;99.90;;;;;;4589026;19;20018;-33
2022/11/03 01:03:37;;;;;;;19.35;8.57;;;16.30;99.90;;;;;;4588746;19;20010;-32
2022/11/03 01:07:02;;;;;;;6.80;4.35;;;16.30;99.90;;;;;;4589003;19;20034;-32
2022/11/03 01:08:35;;;;;;;12.95;6.72;;;16.30;99.90;;;;;;4589657;19;20472;-34
2022/11/03 01:10:08;;;;;;;12.00;7.20;;;16.30;99.90;;;;;;4588173;19;20022;-34
2022/11/03 01:11:43;;;;;;;8.38;5.65;;;16.30;99.90;;;;;;4592553;19;20073;-33
2022/11/03 01:13:14;;;;;;;9.88;5.78;;;16.30;99.90;;;;;;4593823;19;20015;-35
2022/11/03 01:14:49;;;;;;;8.20;6.43;;;16.30;99.90;;;;;;4594052;19;20006;-35
2022/11/03 01:16:20;;;;;;;13.48;5.90;;;16.30;99.90;;;;;;4592187;19;20007;-35
2022/11/03 01:17:52;;;;;;;12.07;6.45;;;16.30;99.90;;;;;;4592112;19;20018;-34
2022/11/03 01:19:24;;;;;;;10.40;6.38;;;16.30;99.90;;;;;;4593036;19;20394;-32
2022/11/03 01:20:55;;;;;;;10.88;6.68;;;16.30;99.90;;;;;;4592565;19;20010;-32
2022/11/03 01:22:26;;;;;;;8.98;5.72;;;16.30;99.90;;;;;;4592469;19;20002;-33
2022/11/03 01:24:01;;;;;;;;;;;16.30;99.90;;;;;;4593214;19;20015;-34
2022/11/03 01:25:34;;;;;;;9.98;6.78;;;16.30;99.90;;;;;;4591722;19;19927;-32
2022/11/03 01:27:05;;;;;;;9.88;6.65;;;16.30;99.90;;;;;;4593541;19;20011;-34
2022/11/03 01:28:38;;;;;;;9.57;6.68;;;16.30;99.90;;;;;;4593596;19;20054;-32
2022/11/03 01:30:11;;;;;;;10.85;7.65;;;16.30;99.90;;;;;;4592140;19;20015;-32
2022/11/03 01:31:42;;;;;;;;;;;16.30;99.90;;;;;;4594195;19;20015;-35
2022/11/03 01:33:13;;;;;;;9.85;5.50;;;16.30;99.90;;;;;;4593773;19;19914;-33
2022/11/03 01:34:47;;;;;;;8.93;5.13;;;16.30;99.90;;;;;;4592189;19;20321;-33
2022/11/03 01:36:18;;;;;;;9.05;4.72;;;16.30;99.90;;;;;;4593236;19;20352;-32
2022/11/03 01:37:50;;;;;;;9.77;5.03;;;16.30;99.90;;;;;;4592523;19;20496;-34
2022/11/03 01:39:23;;;;;;;8.13;4.45;;;16.30;99.90;;;;;;4593119;19;20357;-32
2022/11/03 01:40:54;;;;;;;9.10;5.20;;;16.30;99.90;;;;;;4591973;19;20068;-32
2022/11/03 01:42:25;;;;;;;7.57;4.20;;;16.30;99.90;;;;;;4592798;19;20011;-34
2022/11/03 01:44:05;;;;;;;8.10;4.63;;;16.30;99.90;;;;;;4593510;19;20432;-35
2022/11/03 01:45:38;;;;;;;9.88;4.53;;;16.20;99.90;;;;;;4593829;19;20006;-33
2022/11/03 01:47:19;;;;;;;8.35;4.00;;;16.30;99.90;;;;;;4593131;19;20018;-32
2022/11/03 01:48:55;;;;;;;9.60;4.45;;;16.30;99.90;;;;;;4591877;19;20015;-35
2022/11/03 01:50:29;;;;;;;7.53;4.60;;;16.30;99.90;;;;;;4593006;19;20014;-34
2022/11/03 01:52:08;;;;;;;8.82;5.05;;;16.30;99.90;;;;;;4591632;19;20021;-32
2022/11/03 01:53:41;;;;;;;8.57;4.50;;;16.30;99.90;;;;;;4591640;19;20019;-35
2022/11/03 01:55:18;;;;;;;8.57;4.03;;;16.30;99.90;;;;;;4591586;19;20015;-34
2022/11/03 01:56:50;;;;;;;7.68;4.05;;;16.30;99.90;;;;;;4592774;19;20011;-35
2022/11/03 01:58:30;;;;;;;7.43;3.78;;;16.30;99.90;;;;;;4593100;19;20010;-35
2022/11/03 02:00:04;;;;;;;7.25;4.40;;;16.20;99.90;;;;;;4591465;19;20545;-34
2022/11/03 02:01:34;;;;;;;;;;;16.30;99.90;;;;;;4592263;19;20015;-32
2022/11/03 02:03:08;;;;;;;8.18;4.15;;;16.20;99.90;;;;;;4591824;19;19927;-32
2022/11/03 02:04:39;;;;;;;6.47;4.03;;;16.30;99.90;;;;;;4591690;19;19998;-34
2022/11/03 02:06:11;;;;;;;6.80;4.63;;;16.20;99.90;;;;;;4591843;19;20011;-33
2022/11/03 02:08:05;;;;;;;6.88;4.20;;;16.30;99.90;;;;;;4590331;19;20382;-35
2022/11/03 02:09:36;;;;;;;9.10;4.10;;;16.20;99.90;;;;;;4591127;19;20024;-32
2022/11/03 02:13:00;;;;;;;7.72;4.15;;;16.20;99.90;;;;;;4593138;19;19998;-34
2022/11/03 02:14:31;;;;;;;9.20;4.07;;;16.30;99.90;;;;;;4591321;19;20384;-32
2022/11/03 02:16:04;;;;;;;6.50;3.47;;;16.20;99.90;;;;;;4591963;19;20015;-33
2022/11/03 02:17:36;;;;;;;6.60;3.72;;;16.30;99.90;;;;;;4591158;19;20483;-32
2022/11/03 02:19:19;;;;;;;8.90;4.32;;;16.20;99.90;;;;;;4591114;19;20014;-32
2022/11/03 02:21:11;;;;;;;7.82;4.10;;;16.20;99.90;;;;;;4591405;19;20014;-33
2022/11/03 02:22:52;;;;;;;7.00;4.00;;;16.20;99.90;;;;;;4590291;19;20363;-34
2022/11/03 02:24:31;;;;;;;9.30;4.38;;;16.30;99.90;;;;;;4591356;19;20025;-32
2022/11/03 02:26:03;;;;;;;7.93;4.72;;;16.20;99.90;;;;;;4590875;19;20035;-32
2022/11/03 02:27:34;;;;;;;;;;;16.30;99.90;;;;;;4591180;19;20006;-34
2022/11/03 02:29:05;;;;;;;9.73;4.93;;;16.20;99.90;;;;;;4592142;19;19963;-32
2022/11/03 02:30:58;;;;;;;9.45;5.05;;;16.30;99.90;;;;;;4590880;19;20495;-32
2022/11/03 02:32:38;;;;;;;7.70;4.10;;;16.30;99.90;;;;;;4592224;19;20010;-32
2022/11/03 02:34:10;;;;;;;7.85;4.45;;;16.20;99.90;;;;;;4591486;19;20048;-33
2022/11/03 02:35:53;;;;;;;10.20;4.13;;;16.30;99.90;;;;;;4592510;19;20355;-33
2022/11/03 02:37:26;;;;;;;7.43;4.50;;;16.20;99.90;;;;;;4590026;19;20015;-34
2022/11/03 02:39:08;;;;;;;8.13;5.15;;;16.20;99.90;;;;;;4589403;19;20021;-34
2022/11/03 02:40:42;;;;;;;8.98;4.10;;;16.20;99.90;;;;;;4589510;19;20015;-33
2022/11/03 02:42:13;;;;;;;7.45;4.20;;;16.20;99.90;;;;;;4589721;19;20025;-35
2022/11/03 02:43:45;;;;;;;7.78;4.75;;;16.20;99.90;;;;;;4589996;19;20017;-32
2022/11/03 02:45:18;;;;;;;11.98;5.05;;;16.30;99.90;;;;;;4589316;19;20031;-33
2022/11/03 02:46:51;;;;;;;9.00;4.53;;;16.20;99.90;;;;;;4589551;19;20010;-34
2022/11/03 02:48:24;;;;;;;8.52;4.90;;;16.30;99.90;;;;;;4589053;19;20046;-33
2022/11/03 02:49:55;;;;;;;10.35;4.95;;;16.20;99.90;;;;;;4589150;19;19998;-35
2022/11/03 02:51:26;;;;;;;8.45;4.75;;;16.20;99.90;;;;;;4589420;19;20075;-32
2022/11/03 02:52:58;;;;;;;8.05;4.80;;;16.30;99.90;;;;;;4589291;19;20028;-34
2022/11/03 02:54:37;;;;;;;8.85;4.88;;;16.20;99.90;;;;;;4589995;19;20399;-34
2022/11/03 02:56:17;;;;;;;8.65;4.40;;;16.30;99.90;;;;;;4589796;19;20015;-35
2022/11/03 02:58:00;;;;;;;8.70;4.30;;;16.30;99.90;;;;;;4589199;19;20010;-34
2022/11/03 02:59:41;;;;;;;11.55;4.93;;;16.30;99.90;;;;;;4589571;19;20070;-33
2022/11/03 03:01:18;;;;;;;8.25;4.60;;;16.20;99.90;;;;;;4589131;19;20010;-34
2022/11/03 03:03:21;;;;;;;8.60;4.75;;;16.20;99.90;;;;;;4589602;19;20011;-31
2022/11/03 03:04:54;;;;;;;9.27;4.60;;;16.30;99.90;;;;;;4589061;19;20092;-35
2022/11/03 03:06:29;;;;;;;8.70;4.43;;;16.30;99.90;;;;;;4589551;19;19995;-33
2022/11/03 03:08:04;;;;;;;8.80;4.68;;;16.30;99.90;;;;;;4588293;19;20393;-35
2022/11/03 03:09:48;;;;;;;7.85;4.45;;;16.30;99.90;;;;;;4590870;19;20014;-34
2022/11/03 03:11:35;;;;;;;9.48;4.57;;;16.20;99.90;;;;;;4589872;19;20491;-34
2022/11/03 03:13:07;;;;;;;7.00;4.40;;;16.30;99.90;;;;;;4590404;19;20003;-32
2022/11/03 03:14:38;;;;;;;9.23;5.20;;;16.30;99.90;;;;;;4591025;19;20345;-33
2022/11/03 03:16:20;;;;;;;9.82;5.78;;;16.30;99.90;;;;;;4591422;19;20018;-33
2022/11/03 03:17:53;;;;;;;9.40;4.88;;;16.30;99.90;;;;;;4591493;19;20014;-33
2022/11/03 03:19:32;;;;;;;7.97;4.50;;;16.20;99.90;;;;;;4590031;19;19998;-35
2022/11/03 03:21:12;;;;;;;9.18;5.28;;;16.20;99.90;;;;;;4590761;19;20443;-33
2022/11/03 03:22:55;;;;;;;7.38;4.68;;;16.20;99.90;;;;;;4589916;19;20015;-32
2022/11/03 03:24:34;;;;;;;11.23;5.47;;;16.20;99.90;;;;;;4589272;19;20014;-35
2022/11/03 03:26:12;;;;;;;9.00;5.18;;;16.20;99.90;;;;;;4590462;19;20010;-32
2022/11/03 03:27:49;;;;;;;8.77;5.15;;;16.20;99.90;;;;;;4590758;19;20003;-33
2022/11/03 03:29:26;;;;;;;8.50;4.45;;;16.20;99.90;;;;;;4589574;19;20496;-33
2022/11/03 03:31:00;;;;;;;8.65;4.07;;;16.20;99.90;;;;;;4589779;19;20224;-35
2022/11/03 03:32:36;;;;;;;7.13;4.85;;;16.20;99.90;;;;;;4589522;19;20433;-32
2022/11/03 03:34:09;;;;;;;8.50;5.28;;;16.20;99.90;;;;;;4587304;19;20372;-33
2022/11/03 03:35:44;;;;;;;8.38;4.63;;;16.20;99.90;;;;;;4590425;19;20073;-32
2022/11/03 03:37:16;;;;;;;7.72;3.97;;;16.20;99.90;;;;;;4590586;19;20341;-34
2022/11/03 03:38:51;;;;;;;10.43;4.78;;;16.20;99.90;;;;;;4589887;19;20006;-33
2022/11/03 03:40:26;;;;;;;7.80;4.28;;;16.20;99.90;;;;;;4589875;19;20010;-34
2022/11/03 03:41:57;;;;;;;9.10;4.75;;;16.20;99.90;;;;;;4589916;19;20006;-34
2022/11/03 03:43:29;;;;;;;8.52;4.07;;;16.20;99.90;;;;;;4589506;19;20427;-33
2022/11/03 03:45:02;;;;;;;9.90;5.07;;;16.20;99.90;;;;;;4589288;19;20010;-34
2022/11/03 03:46:47;;;;;;;9.80;5.15;;;16.20;99.90;;;;;;4589823;19;20027;-35
2022/11/03 03:48:19;;;;;;;9.25;4.22;;;16.20;99.90;;;;;;4589202;19;20016;-33
2022/11/03 03:49:51;;;;;;;8.85;4.40;;;16.20;99.90;;;;;;4589447;19;20018;-35
2022/11/03 03:51:25;;;;;;;8.10;5.32;;;16.20;99.90;;;;;;4589170;19;20014;-32
2022/11/03 03:53:05;;;;;;;8.60;4.53;;;16.20;99.90;;;;;;4589179;19;20472;-35
2022/11/03 03:54:36;;;;;;;8.13;4.82;;;16.20;99.90;;;;;;4589753;19;20006;-32
2022/11/03 03:56:09;;;;;;;8.05;5.28;;;16.20;99.90;;;;;;4589775;19;20010;-32
2022/11/03 03:57:43;;;;;;;9.20;5.85;;;16.20;99.90;;;;;;4588987;19;20040;-32
2022/11/03 03:59:14;;;;;;;8.55;5.38;;;16.20;99.90;;;;;;4589174;19;20020;-32
2022/11/03 04:00:47;;;;;;;11.60;5.80;;;16.20;99.90;;;;;;4590346;19;20002;-33
2022/11/03 04:02:19;;;;;;;11.18;6.40;;;16.20;99.90;;;;;;4590085;19;20010;-33
2022/11/03 04:03:52;;;;;;;9.23;5.90;;;16.20;99.90;;;;;;4590373;19;20011;-32
2022/11/03 04:05:25;;;;;;;9.25;5.68;;;16.20;99.90;;;;;;4590458;19;20011;-33
2022/11/03 04:08:47;;;;;;;11.35;6.10;;;16.20;99.90;;;;;;4590131;19;20002;-35
2022/11/03 04:10:21;;;;;;;11.23;6.55;;;16.20;99.90;;;;;;4590216;19;20006;-32
2022/11/03 04:22:54;;;;;;;9.23;5.22;;;16.20;99.90;;;;;;4590203;19;20022;-32
2022/11/03 04:24:27;;;;;;;8.27;4.85;;;16.20;99.90;;;;;;4589996;19;20102;-34
2022/11/03 04:25:58;;;;;;;8.90;4.97;;;16.10;99.90;;;;;;4590457;19;19995;-33
2022/11/03 04:27:30;;;;;;;9.75;5.35;;;16.20;99.90;;;;;;4586846;19;20015;-34
2022/11/03 04:29:05;;;;;;;10.07;5.18;;;16.20;99.90;;;;;;4588375;19;20082;-33
2022/11/03 04:30:37;;;;;;;7.63;4.82;;;16.20;99.90;;;;;;4588558;19;20347;-33
2022/11/03 04:32:16;;;;;;;9.23;5.63;;;16.10;99.90;;;;;;4589885;19;20003;-34
2022/11/03 04:33:48;;;;;;;9.55;5.22;;;16.20;99.90;;;;;;4588044;19;20031;-34
2022/11/03 04:35:25;;;;;;;9.05;4.85;;;16.20;99.90;;;;;;4589465;19;20015;-32
2022/11/03 04:36:57;;;;;;;8.95;4.85;;;16.20;99.90;;;;;;4588709;19;20074;-35
2022/11/03 04:38:28;;;;;;;9.95;5.70;;;16.10;99.90;;;;;;4588931;19;20018;-34
2022/11/03 04:40:00;;;;;;;8.38;5.60;;;16.20;99.90;;;;;;4588383;19;20006;-32
2022/11/03 04:41:32;;;;;;;9.85;5.43;;;16.20;99.90;;;;;;4588745;19;20047;-32
2022/11/03 04:43:05;;;;;;;7.40;5.07;;;16.20;99.90;;;;;;4588660;19;20074;-32
2022/11/03 04:44:38;;;;;;;11.68;6.60;;;16.10;99.90;;;;;;4588693;19;20007;-34
2022/11/03 04:46:14;;;;;;;8.82;4.93;;;16.10;99.90;;;;;;4591508;19;20035;-32
2022/11/03 04:47:47;;;;;;;13.25;6.75;;;16.10;99.90;;;;;;4593771;19;20015;-31
2022/11/03 04:49:21;;;;;;;9.05;5.82;;;16.20;99.90;;;;;;4594290;19;20508;-33
2022/11/03 04:50:57;;;;;;;9.15;5.72;;;16.10;99.90;;;;;;4593434;19;20005;-34
2022/11/03 04:52:28;;;;;;;10.77;5.50;;;16.10;99.90;;;;;;4591638;19;20037;-35
2022/11/03 04:54:13;;;;;;;9.63;5.45;;;16.20;99.90;;;;;;4591894;19;20052;-32
2022/11/03 04:55:44;;;;;;;9.07;4.60;;;16.10;99.90;;;;;;4591748;19;20405;-32
2022/11/03 04:57:16;;;;;;;8.00;5.43;;;16.20;99.90;;;;;;4591976;19;20322;-32
2022/11/03 04:58:48;;;;;;;9.73;6.13;;;16.20;99.90;;;;;;4591764;19;20011;-32
2022/11/03 05:00:19;;;;;;;;;;;16.10;99.90;;;;;;4592592;19;20084;-32
2022/11/03 05:01:52;;;;;;;8.27;5.10;;;16.20;99.90;;;;;;4591607;19;19919;-33
2022/11/03 05:03:26;;;;;;;10.65;5.95;;;16.10;99.90;;;;;;4591785;19;19998;-34
2022/11/03 05:04:58;;;;;;;11.13;5.93;;;16.10;99.90;;;;;;4591645;19;20019;-32
2022/11/03 05:06:30;;;;;;;11.95;6.25;;;16.10;99.90;;;;;;4591628;19;20341;-34
2022/11/03 05:08:02;;;;;;;9.70;5.72;;;16.20;99.90;;;;;;4590853;19;20428;-35
2022/11/03 05:09:33;;;;;;;9.20;5.25;;;16.10;99.90;;;;;;4592166;19;20112;-34
2022/11/03 05:11:13;;;;;;;11.02;6.47;;;16.10;99.90;;;;;;4591475;19;20017;-34
2022/11/03 05:12:46;;;;;;;8.25;5.65;;;16.10;99.90;;;;;;4591572;19;20359;-32
2022/11/03 05:14:18;;;;;;;6.13;5.07;;;16.10;99.90;;;;;;4591491;19;20464;-35
2022/11/03 05:15:52;;;;;;;7.68;5.13;;;16.10;99.90;;;;;;4592152;19;20069;-32
2022/11/03 05:17:25;;;;;;;9.23;5.80;;;16.20;99.90;;;;;;4591228;19;20106;-33
2022/11/03 05:18:56;;;;;;;10.68;5.82;;;16.10;99.90;;;;;;4591380;19;20082;-36
2022/11/03 05:20:38;;;;;;;8.18;5.35;;;16.10;99.90;;;;;;4591463;19;19998;-33
2022/11/03 05:22:16;;;;;;;9.52;5.60;;;16.20;99.90;;;;;;4591599;19;20039;-33
2022/11/03 05:23:57;;;;;;;8.48;5.57;;;16.10;99.90;;;;;;4591298;19;20011;-34
2022/11/03 05:25:30;;;;;;;9.75;5.88;;;16.10;99.90;;;;;;4589915;19;20014;-34
2022/11/03 05:27:01;;;;;;;9.23;4.93;;;16.10;99.90;;;;;;4591413;19;20021;-33
2022/11/03 05:28:45;;;;;;;8.88;5.55;;;16.10;99.90;;;;;;4589781;19;20025;-34
2022/11/03 05:30:17;;;;;;;10.57;5.75;;;16.10;99.90;;;;;;4592472;19;20031;-33
2022/11/03 05:31:50;;;;;;;11.20;5.60;;;16.20;99.90;;;;;;4593125;19;20021;-33
2022/11/03 05:33:25;;;;;;;11.05;6.05;;;16.10;99.90;;;;;;4595465;19;20014;-34
2022/11/03 05:34:56;;;;;;;8.63;4.80;;;16.20;99.90;;;;;;4593566;19;20010;-33
2022/11/03 05:36:29;;;;;;;9.40;5.22;;;16.20;99.90;;;;;;4594132;19;20015;-32
2022/11/03 05:38:00;;;;;;;9.15;5.03;;;16.20;99.90;;;;;;4594896;19;20025;-32
2022/11/03 05:39:37;;;;;;;10.05;5.57;;;16.10;99.90;;;;;;4593833;19;20341;-33
2022/11/03 05:41:13;;;;;;;9.40;5.78;;;16.10;99.90;;;;;;4591278;19;20341;-33
2022/11/03 05:42:46;;;;;;;11.00;5.53;;;16.20;99.90;;;;;;4591677;19;20066;-33
2022/11/03 05:44:32;;;;;;;9.15;5.05;;;16.20;99.90;;;;;;4592544;19;20014;-34
2022/11/03 05:46:03;;;;;;;9.23;5.63;;;16.20;99.90;;;;;;4591721;19;20010;-35
2022/11/03 05:47:37;;;;;;;10.32;6.00;;;16.20;99.90;;;;;;4592052;19;20010;-33
2022/11/03 05:49:08;;;;;;;11.40;6.20;;;16.20;99.90;;;;;;4591466;19;20399;-33
2022/11/03 05:50:40;;;;;;;11.18;7.10;;;16.10;99.90;;;;;;4591491;19;20124;-32
2022/11/03 05:52:20;;;;;;;12.07;7.72;;;16.20;99.90;;;;;;4591698;19;20027;-33
2022/11/03 05:53:56;;;;;;;10.35;7.05;;;16.10;99.90;;;;;;4591501;19;20022;-35
2022/11/03 05:55:32;;;;;;;11.05;6.20;;;16.20;99.90;;;;;;4592931;19;20040;-33
2022/11/03 05:57:09;;;;;;;11.95;7.53;;;16.10;99.90;;;;;;4590996;19;20018;-32
2022/11/03 05:58:43;;;;;;;11.30;8.20;;;16.10;99.90;;;;;;4591214;19;20488;-35
2022/11/03 06:00:32;;;;;;;11.95;8.50;;;16.20;99.90;;;;;;4592620;19;20341;-32
2022/11/03 06:02:18;;;;;;;14.60;10.18;;;16.20;99.90;;;;;;4593153;19;19998;-34
2022/11/03 06:03:49;;;;;;;16.15;11.07;;;16.20;99.90;;;;;;4591773;19;20018;-34
2022/11/03 06:05:21;;;;;;;18.13;10.02;;;16.20;99.90;;;;;;4591533;19;20017;-35
2022/11/03 06:06:54;;;;;;;15.43;10.70;;;16.10;99.90;;;;;;4592157;19;20349;-34
2022/11/03 06:08:34;;;;;;;17.23;12.05;;;16.10;99.90;;;;;;4590114;19;20070;-34
2022/11/03 06:10:27;;;;;;;17.35;10.93;;;16.20;99.90;;;;;;4592517;19;20011;-32
2022/11/03 06:11:59;;;;;;;18.98;12.60;;;16.20;99.90;;;;;;4592518;19;20006;-33
2022/11/03 06:13:37;;;;;;;17.40;13.05;;;16.10;99.90;;;;;;4592933;19;20421;-35
2022/11/03 06:15:09;;;;;;;19.10;11.82;;;16.10;99.90;;;;;;4592479;19;20091;-32
2022/11/03 06:16:41;;;;;;;18.50;13.13;;;16.20;99.90;;;;;;4591398;19;20006;-33
2022/11/03 06:18:23;;;;;;;21.38;14.60;;;16.10;99.90;;;;;;4591030;19;20012;-33
2022/11/03 06:19:56;;;;;;;20.70;14.65;;;16.10;99.90;;;;;;4590984;19;20010;-35
2022/11/03 06:21:27;;;;;;;19.70;14.40;;;16.20;99.90;;;;;;4590970;19;20484;-32
2022/11/03 06:22:59;;;;;;;20.67;13.85;;;16.10;99.90;;;;;;4592148;19;20034;-32
2022/11/03 06:24:31;;;;;;;20.60;14.13;;;16.20;99.90;;;;;;4590216;19;20066;-34
2022/11/03 06:26:02;;;;;;;;;;;16.10;99.90;;;;;;4592639;19;20014;-32
2022/11/03 06:27:33;;;;;;;19.90;13.60;;;16.10;99.90;;;;;;4591790;19;19919;-34
2022/11/03 06:29:07;;;;;;;21.98;14.60;;;16.10;99.90;;;;;;4592605;19;20011;-32
2022/11/03 06:30:39;;;;;;;20.17;14.60;;;16.10;99.90;;;;;;4591604;19;20007;-36
2022/11/03 06:32:10;;;;;;;21.08;14.02;;;16.10;99.90;;;;;;4591393;19;20022;-34
2022/11/03 06:33:41;;;;;;;19.30;13.07;;;16.20;99.90;;;;;;4592257;19;20018;-31
2022/11/03 06:35:12;;;;;;;19.98;13.70;;;16.20;99.90;;;;;;4592548;19;20011;-33
2022/11/03 06:36:44;;;;;;;22.20;13.68;;;16.20;99.90;;;;;;4591682;19;20007;-36
2022/11/03 06:38:18;;;;;;;20.25;12.52;;;16.20;99.90;;;;;;4591225;19;20011;-32
2022/11/03 06:39:50;;;;;;;20.60;12.75;;;16.30;99.90;;;;;;4589016;19;20018;-35
2022/11/03 06:41:26;;;;;;;18.70;11.80;;;16.30;99.90;;;;;;4589292;19;20024;-32
2022/11/03 06:42:57;;;;;;;18.75;11.85;;;16.40;99.90;;;;;;4588654;19;20010;-33
2022/11/03 06:44:29;;;;;;;17.27;11.15;;;16.40;99.90;;;;;;4591524;19;20085;-34
2022/11/03 06:46:01;;;;;;;17.20;11.23;;;16.60;99.90;;;;;;4590804;19;20025;-35
2022/11/03 06:47:32;;;;;;;18.30;11.52;;;16.60;99.90;;;;;;4590927;19;20015;-32
2022/11/03 06:49:27;;;;;;;15.93;11.00;;;16.60;99.90;;;;;;4591291;19;20011;-35
2022/11/03 06:50:58;;;;;;;14.00;9.70;;;16.60;99.90;;;;;;4590465;19;20017;-33
2022/11/03 06:52:34;;;;;;;13.55;9.55;;;16.70;99.90;;;;;;4591427;19;20416;-33
2022/11/03 06:54:07;;;;;;;17.15;10.48;;;16.60;99.90;;;;;;4590980;19;20007;-32
2022/11/03 06:55:38;;;;;;;14.25;9.88;;;16.60;99.90;;;;;;4590939;19;20010;-33
2022/11/03 06:57:11;;;;;;;16.98;11.82;;;16.60;99.90;;;;;;4590384;19;20011;-32
2022/11/03 06:58:42;;;;;;;17.70;11.35;;;16.70;99.90;;;;;;4590512;19;20014;-33
2022/11/03 07:00:22;;;;;;;17.00;12.23;;;16.70;99.90;;;;;;4591770;19;20017;-35
2022/11/03 07:01:54;;;;;;;22.77;13.75;;;16.60;99.90;;;;;;4591990;19;19999;-34
2022/11/03 07:03:29;;;;;;;21.55;15.00;;;16.70;99.90;;;;;;4590270;19;20006;-34
2022/11/03 07:05:00;;;;;;;22.10;15.25;;;16.70;99.90;;;;;;4590122;19;20006;-34
2022/11/03 07:06:34;;;;;;;19.70;14.10;;;16.70;99.90;;;;;;4591020;19;20042;-32
2022/11/03 07:08:34;;;;;;;17.00;12.23;;;16.70;99.90;;;;;;4589564;19;20021;-34
2022/11/03 07:10:06;;;;;;;19.40;13.25;;;16.70;99.90;;;;;;4590128;19;20002;-33
2022/11/03 07:11:43;;;;;;;16.13;11.50;;;16.70;99.90;;;;;;4590228;19;20014;-32
2022/11/03 07:13:17;;;;;;;16.83;11.23;;;16.70;99.90;;;;;;4591145;19;20010;-35
2022/11/03 07:14:48;;;;;;;19.75;12.40;;;16.70;99.90;;;;;;4590100;19;20014;-32
2022/11/03 07:16:31;;;;;;;17.38;10.55;;;16.70;99.90;;;;;;4590841;19;20021;-33
2022/11/03 07:18:03;;;;;;;16.73;10.73;;;16.70;99.90;;;;;;4589989;19;20059;-35
2022/11/03 07:19:39;;;;;;;16.05;10.95;;;16.70;99.90;;;;;;4589906;19;20019;-33
2022/11/03 07:21:28;;;;;;;17.35;11.95;;;16.80;99.90;;;;;;4589954;19;20051;-32
2022/11/03 07:23:00;;;;;;;17.20;11.18;;;16.70;99.90;;;;;;4590233;19;20022;-34
2022/11/03 07:24:40;;;;;;;;;;;16.80;99.90;;;;;;4590307;19;20018;-34
2022/11/03 07:26:11;;;;;;;15.02;9.10;;;16.80;99.90;;;;;;4587716;19;19918;-33
2022/11/03 07:27:43;;;;;;;12.77;8.98;;;16.80;99.90;;;;;;4589800;19;20022;-34
2022/11/03 07:29:21;;;;;;;13.63;8.65;;;16.70;99.90;;;;;;4591121;19;20070;-35
2022/11/03 07:30:52;;;;;;;12.70;8.20;;;16.70;99.90;;;;;;4589696;19;20007;-33
2022/11/03 07:32:31;;;;;;;11.95;7.32;;;16.80;99.90;;;;;;4590266;19;20080;-34
2022/11/03 07:34:05;;;;;;;12.15;7.03;;;16.70;99.90;;;;;;4589110;19;20014;-34
2022/11/03 07:35:40;;;;;;;10.88;7.70;;;16.70;99.90;;;;;;4589482;19;20006;-35
2022/11/03 07:37:19;;;;;;;13.05;8.13;;;16.70;99.90;;;;;;4589304;19;20066;-35
2022/11/03 07:38:51;;;;;;;14.82;8.38;;;16.70;99.90;;;;;;4589781;19;20555;-33
2022/11/03 07:40:26;;;;;;;13.18;7.80;;;16.60;99.90;;;;;;4589795;19;20018;-34
2022/11/03 07:42:08;;;;;;;14.93;8.02;;;16.60;99.90;;;;;;4589894;19;20104;-34
2022/11/03 07:43:40;;;;;;;11.45;7.38;;;16.50;99.90;;;;;;4590629;19;20007;-34
2022/11/03 07:45:30;;;;;;;10.40;6.90;;;16.50;99.90;;;;;;4589435;19;20014;-34
2022/11/03 07:47:01;;;;;;;13.32;7.97;;;16.50;99.90;;;;;;4590353;19;20468;-35
2022/11/03 07:48:37;;;;;;;10.15;6.97;;;16.50;99.90;;;;;;4588083;19;20026;-34
2022/11/03 07:50:14;;;;;;;11.52;7.43;;;16.50;99.90;;;;;;4590632;19;20346;-34
2022/11/03 07:51:45;;;;;;;14.48;7.68;;;16.40;99.90;;;;;;4589112;19;20076;-34
2022/11/03 07:53:23;;;;;;;11.88;7.55;;;16.40;99.90;;;;;;4587837;19;20007;-34
2022/11/03 07:54:58;;;;;;;13.50;8.20;;;16.40;99.90;;;;;;4589696;19;20021;-33
2022/11/03 07:56:42;;;;;;;14.60;8.52;;;16.40;99.90;;;;;;4590407;19;20014;-36
2022/11/03 07:58:29;;;;;;;11.55;7.97;;;16.40;99.90;;;;;;4589369;19;20010;-33
2022/11/03 08:00:04;;;;;;;14.73;7.97;;;16.40;99.90;;;;;;4587486;19;20018;-34
2022/11/03 08:01:42;;;;;;;11.88;8.23;;;16.40;99.90;;;;;;4587597;19;20031;-33
2022/11/03 08:03:43;;;;;;;11.30;7.53;;;16.40;99.90;;;;;;4587738;19;20010;-32
2022/11/03 08:05:15;;;;;;;11.00;7.20;;;16.40;99.90;;;;;;4587436;19;20011;-35
2022/11/03 08:06:47;;;;;;;16.35;7.90;;;16.40;99.90;;;;;;4588067;19;20014;-33
2022/11/03 08:08:18;;;;;;;13.38;7.20;;;16.40;99.90;;;;;;4587205;19;20013;-33
2022/11/03 08:09:49;;;;;;;12.00;7.60;;;16.40;99.90;;;;;;4587735;19;20031;-33
2022/11/03 08:11:22;;;;;;;11.90;7.68;;;16.40;99.90;;;;;;4587990;19;20587;-34
2022/11/03 08:12:53;;;;;;;13.65;8.07;;;16.30;99.90;;;;;;4587925;19;20007;-33
2022/11/03 08:14:24;;;;;;;13.68;8.23;;;16.40;99.90;;;;;;4587853;19;20019;-34
2022/11/03 08:15:56;;;;;;;12.85;7.53;;;16.40;99.90;;;;;;4587823;19;20014;-33
2022/11/03 08:17:28;;;;;;;12.77;8.32;;;16.40;99.90;;;;;;4587722;19;20381;-32
2022/11/03 08:18:59;;;;;;;11.65;7.50;;;16.40;99.90;;;;;;4588212;19;19998;-35
2022/11/03 08:20:30;;;;;;;14.60;8.07;;;16.40;99.90;;;;;;4585642;19;20462;-34
2022/11/03 08:22:02;;;;;;;16.50;9.93;;;16.40;99.90;;;;;;4587856;19;20079;-32
2022/11/03 08:23:33;;;;;;;;;;;16.40;99.90;;;;;;4588197;19;20038;-33
2022/11/03 08:25:05;;;;;;;12.48;7.82;;;16.40;99.90;;;;;;4586915;19;20326;-35
2022/11/03 08:26:36;;;;;;;11.48;7.18;;;16.40;99.90;;;;;;4587411;19;20528;-37
2022/11/03 08:28:07;;;;;;;12.18;7.35;;;16.40;99.90;;;;;;4587150;19;20015;-34
2022/11/03 08:29:39;;;;;;;11.88;7.47;;;16.50;99.90;;;;;;4588013;19;20366;-34